sensor_id;sensor_type;location;lat;lon;timestamp;pressure;altitude;pressure_sealevel;temperature;humidity
82872;BME280;72646;43.596;1.428;2024-03-07T00:00:35;99717.94;;;17.07;43.11
82872;BME280;72646;43.596;1.428;2024-03-07T00:03:01;99728.25;;;17.11;43.04
82872;BME280;72646;43.596;1.428;2024-03-07T00:05:27;99723.81;;;17.10;42.76
82872;BME280;72646;43.596;1.428;2024-03-07T00:07:53;99706.91;;;17.07;42.84
82872;BME280;72646;43.596;1.428;2024-03-07T00:10:19;99713.03;;;17.09;42.93
82872;BME280;72646;43.596;1.428;2024-03-07T00:12:46;99702.84;;;16.98;42.72
82872;BME280;72646;43.596;1.428;2024-03-07T00:15:13;99705.72;;;17.03;43.19
82872;BME280;72646;43.596;1.428;2024-03-07T00:17:39;99705.81;;;17.08;43.16
82872;BME280;72646;43.596;1.428;2024-03-07T00:20:05;99706.06;;;17.06;43.23
82872;BME280;72646;43.596;1.428;2024-03-07T00:22:35;99693.97;;;17.07;42.98
82872;BME280;72646;43.596;1.428;2024-03-07T00:25:00;99697.53;;;17.08;42.83
82872;BME280;72646;43.596;1.428;2024-03-07T00:27:26;99701.13;;;17.08;43.11
82872;BME280;72646;43.596;1.428;2024-03-07T00:29:52;99694.78;;;17.08;43.36
82872;BME280;72646;43.596;1.428;2024-03-07T00:32:23;99691.78;;;17.09;42.78
82872;BME280;72646;43.596;1.428;2024-03-07T00:34:49;99694.78;;;17.08;43.03
82872;BME280;72646;43.596;1.428;2024-03-07T00:37:15;99690.03;;;17.03;42.84
82872;BME280;72646;43.596;1.428;2024-03-07T00:39:41;99695.03;;;17.06;43.10
82872;BME280;72646;43.596;1.428;2024-03-07T00:42:07;99688.94;;;17.04;42.82
82872;BME280;72646;43.596;1.428;2024-03-07T00:44:33;99691.94;;;17.03;42.76
82872;BME280;72646;43.596;1.428;2024-03-07T00:47:00;99690.03;;;17.03;42.68
82872;BME280;72646;43.596;1.428;2024-03-07T00:49:25;99676.72;;;17.00;42.83
82872;BME280;72646;43.596;1.428;2024-03-07T00:51:50;99681.75;;;17.03;43.09
82872;BME280;72646;43.596;1.428;2024-03-07T00:54:16;99671.78;;;17.02;42.87
82872;BME280;72646;43.596;1.428;2024-03-07T00:56:41;99663.97;;;16.99;42.94
82872;BME280;72646;43.596;1.428;2024-03-07T00:59:07;99661.59;;;17.03;42.95
82872;BME280;72646;43.596;1.428;2024-03-07T01:01:33;99655.22;;;17.02;42.80
82872;BME280;72646;43.596;1.428;2024-03-07T01:04:01;99652.47;;;17.02;42.69
82872;BME280;72646;43.596;1.428;2024-03-07T01:06:27;99645.28;;;17.01;42.58
82872;BME280;72646;43.596;1.428;2024-03-07T01:08:53;99641.94;;;16.99;42.84
82872;BME280;72646;43.596;1.428;2024-03-07T01:11:19;99648.91;;;17.02;42.47
82872;BME280;72646;43.596;1.428;2024-03-07T01:13:44;99646.38;;;17.00;42.87
82872;BME280;72646;43.596;1.428;2024-03-07T01:16:09;99630.31;;;16.97;42.65
82872;BME280;72646;43.596;1.428;2024-03-07T01:18:35;99623.63;;;16.93;42.64
82872;BME280;72646;43.596;1.428;2024-03-07T01:21:02;99623.97;;;16.97;42.88
82872;BME280;72646;43.596;1.428;2024-03-07T01:23:27;99625.97;;;17.01;42.69
82872;BME280;72646;43.596;1.428;2024-03-07T01:25:56;99631.13;;;16.98;42.48
82872;BME280;72646;43.596;1.428;2024-03-07T01:28:22;99628.38;;;16.98;42.95
82872;BME280;72646;43.596;1.428;2024-03-07T01:30:49;99620.09;;;16.98;42.58
82872;BME280;72646;43.596;1.428;2024-03-07T01:33:14;99620.97;;;16.98;42.76
82872;BME280;72646;43.596;1.428;2024-03-07T01:35:40;99615.34;;;16.93;42.70
82872;BME280;72646;43.596;1.428;2024-03-07T01:38:05;99623.72;;;16.98;42.35
82872;BME280;72646;43.596;1.428;2024-03-07T01:40:31;99609.84;;;16.93;42.76
82872;BME280;72646;43.596;1.428;2024-03-07T01:42:57;99602.06;;;16.90;42.33
82872;BME280;72646;43.596;1.428;2024-03-07T01:45:22;99610.41;;;16.95;42.27
82872;BME280;72646;43.596;1.428;2024-03-07T01:47:47;99608.75;;;16.94;42.41
82872;BME280;72646;43.596;1.428;2024-03-07T01:50:14;99598.03;;;16.98;42.92
82872;BME280;72646;43.596;1.428;2024-03-07T01:52:41;99598.03;;;16.98;42.84
82872;BME280;72646;43.596;1.428;2024-03-07T01:55:07;99596.38;;;16.97;42.64
82872;BME280;72646;43.596;1.428;2024-03-07T01:57:33;99596.50;;;17.02;42.50
82872;BME280;72646;43.596;1.428;2024-03-07T02:00:00;99587.38;;;17.01;42.57
82872;BME280;72646;43.596;1.428;2024-03-07T02:02:25;99584.00;;;16.99;42.61
82872;BME280;72646;43.596;1.428;2024-03-07T02:04:51;99582.34;;;16.98;42.35
82872;BME280;72646;43.596;1.428;2024-03-07T02:07:16;99567.63;;;16.93;42.64
82872;BME280;72646;43.596;1.428;2024-03-07T02:09:42;99559.38;;;16.93;42.32
82872;BME280;72646;43.596;1.428;2024-03-07T02:12:07;99568.31;;;17.00;42.24
82872;BME280;72646;43.596;1.428;2024-03-07T02:14:34;99547.25;;;16.94;42.10
82872;BME280;72646;43.596;1.428;2024-03-07T02:16:59;99552.88;;;16.99;42.55
82872;BME280;72646;43.596;1.428;2024-03-07T02:19:25;99535.88;;;16.90;42.14
82872;BME280;72646;43.596;1.428;2024-03-07T02:21:51;99547.59;;;16.97;42.10
82872;BME280;72646;43.596;1.428;2024-03-07T02:24:16;99545.66;;;16.98;42.14
82872;BME280;72646;43.596;1.428;2024-03-07T02:26:42;99544.84;;;16.97;42.55
82872;BME280;72646;43.596;1.428;2024-03-07T02:29:07;99532.34;;;16.95;42.51
82872;BME280;72646;43.596;1.428;2024-03-07T02:31:33;99537.38;;;16.98;42.13
82872;BME280;72646;43.596;1.428;2024-03-07T02:34:05;99531.03;;;16.97;42.12
82872;BME280;72646;43.596;1.428;2024-03-07T02:36:33;99530.56;;;17.00;42.30
82872;BME280;72646;43.596;1.428;2024-03-07T02:38:58;99519.78;;;16.99;42.13
82872;BME280;72646;43.596;1.428;2024-03-07T02:41:25;99514.50;;;16.97;42.02
82872;BME280;72646;43.596;1.428;2024-03-07T02:43:50;99503.13;;;16.94;42.05
82872;BME280;72646;43.596;1.428;2024-03-07T02:46:16;99513.66;;;16.97;41.78
82872;BME280;72646;43.596;1.428;2024-03-07T02:48:42;99500.59;;;16.92;42.10
82872;BME280;72646;43.596;1.428;2024-03-07T02:51:07;99499.53;;;16.93;42.21
82872;BME280;72646;43.596;1.428;2024-03-07T02:53:33;99494.28;;;16.92;42.33
82872;BME280;72646;43.596;1.428;2024-03-07T02:55:58;99496.78;;;16.93;42.34
82872;BME280;72646;43.596;1.428;2024-03-07T02:58:24;99488.16;;;16.90;41.71
82872;BME280;72646;43.596;1.428;2024-03-07T03:00:59;99489.00;;;16.90;41.73
82872;BME280;72646;43.596;1.428;2024-03-07T03:03:31;99481.22;;;16.87;41.60
82872;BME280;72646;43.596;1.428;2024-03-07T03:05:57;99469.78;;;16.79;41.65
82872;BME280;72646;43.596;1.428;2024-03-07T03:08:23;99487.91;;;16.91;41.69
82872;BME280;72646;43.596;1.428;2024-03-07T03:10:49;99477.38;;;16.88;41.77
82872;BME280;72646;43.596;1.428;2024-03-07T03:13:16;99468.25;;;16.88;42.21
82872;BME280;72646;43.596;1.428;2024-03-07T03:15:42;99468.63;;;16.91;41.84
82872;BME280;72646;43.596;1.428;2024-03-07T03:18:07;99441.13;;;16.80;41.69
82872;BME280;72646;43.596;1.428;2024-03-07T03:20:35;99446.13;;;16.83;41.73
82872;BME280;72646;43.596;1.428;2024-03-07T03:23:04;99455.31;;;16.88;41.63
82872;BME280;72646;43.596;1.428;2024-03-07T03:25:30;99447.53;;;16.85;41.97
82872;BME280;72646;43.596;1.428;2024-03-07T03:27:59;99446.69;;;16.85;41.74
82872;BME280;72646;43.596;1.428;2024-03-07T03:30:25;99431.50;;;16.82;41.99
82872;BME280;72646;43.596;1.428;2024-03-07T03:32:51;99440.69;;;16.88;41.57
82872;BME280;72646;43.596;1.428;2024-03-07T03:35:17;99432.91;;;16.85;41.40
82872;BME280;72646;43.596;1.428;2024-03-07T03:37:43;99439.28;;;16.85;42.19
82872;BME280;72646;43.596;1.428;2024-03-07T03:40:09;99435.09;;;16.83;41.79
82872;BME280;72646;43.596;1.428;2024-03-07T03:42:36;99434.25;;;16.82;41.47
82872;BME280;72646;43.596;1.428;2024-03-07T03:45:03;99443.03;;;16.79;41.46
82872;BME280;72646;43.596;1.428;2024-03-07T03:47:38;99441.13;;;16.80;41.95
82872;BME280;72646;43.596;1.428;2024-03-07T03:50:08;99443.94;;;16.85;41.49
82872;BME280;72646;43.596;1.428;2024-03-07T03:52:34;99437.00;;;16.82;41.74
82872;BME280;72646;43.596;1.428;2024-03-07T03:55:03;99435.09;;;16.83;41.51
82872;BME280;72646;43.596;1.428;2024-03-07T03:57:31;99439.03;;;16.87;41.47
82872;BME280;72646;43.596;1.428;2024-03-07T03:59:56;99426.59;;;16.84;41.50
82872;BME280;72646;43.596;1.428;2024-03-07T04:02:22;99437.13;;;16.87;41.56
82872;BME280;72646;43.596;1.428;2024-03-07T04:04:48;99428.50;;;16.84;41.32
82872;BME280;72646;43.596;1.428;2024-03-07T04:07:14;99423.09;;;16.89;41.25
82872;BME280;72646;43.596;1.428;2024-03-07T04:09:42;99415.56;;;16.84;41.61
82872;BME280;72646;43.596;1.428;2024-03-07T04:12:09;99423.09;;;16.89;41.12
82872;BME280;72646;43.596;1.428;2024-03-07T04:14:40;99426.41;;;16.91;41.28
82872;BME280;72646;43.596;1.428;2024-03-07T04:17:10;99428.34;;;16.90;41.03
82872;BME280;72646;43.596;1.428;2024-03-07T04:19:40;99421.16;;;16.89;41.35
82872;BME280;72646;43.596;1.428;2024-03-07T04:22:06;99418.13;;;16.91;41.50
82872;BME280;72646;43.596;1.428;2024-03-07T04:24:33;99415.63;;;16.89;41.13
82872;BME280;72646;43.596;1.428;2024-03-07T04:26:59;99396.50;;;16.83;41.33
82872;BME280;72646;43.596;1.428;2024-03-07T04:29:25;99404.34;;;16.91;41.16
82872;BME280;72646;43.596;1.428;2024-03-07T04:31:51;99393.50;;;16.84;41.15
82872;BME280;72646;43.596;1.428;2024-03-07T04:34:16;99386.16;;;16.73;40.91
82872;BME280;72646;43.596;1.428;2024-03-07T04:36:42;99398.53;;;16.87;41.23
82872;BME280;72646;43.596;1.428;2024-03-07T04:39:07;99404.59;;;16.89;41.08
82872;BME280;72646;43.596;1.428;2024-03-07T04:41:39;99393.81;;;16.88;41.47
82872;BME280;72646;43.596;1.428;2024-03-07T04:44:05;99397.69;;;16.87;40.98
82872;BME280;72646;43.596;1.428;2024-03-07T04:46:30;99391.06;;;16.88;41.49
82872;BME280;72646;43.596;1.428;2024-03-07T04:48:56;99380.53;;;16.85;41.38
82872;BME280;72646;43.596;1.428;2024-03-07T04:51:22;99386.41;;;16.88;40.78
82872;BME280;72646;43.596;1.428;2024-03-07T04:53:48;99379.97;;;16.83;40.98
82872;BME280;72646;43.596;1.428;2024-03-07T04:56:13;99383.03;;;16.86;41.13
82872;BME280;72646;43.596;1.428;2024-03-07T04:58:39;99379.47;;;16.86;41.14
82872;BME280;72646;43.596;1.428;2024-03-07T05:01:05;99366.09;;;16.78;41.41
82872;BME280;72646;43.596;1.428;2024-03-07T05:03:30;99368.94;;;16.83;41.13
82872;BME280;72646;43.596;1.428;2024-03-07T05:05:55;99354.50;;;16.76;41.28
82872;BME280;72646;43.596;1.428;2024-03-07T05:08:22;99365.84;;;16.79;40.94
82872;BME280;72646;43.596;1.428;2024-03-07T05:10:47;99361.16;;;16.80;41.00
82872;BME280;72646;43.596;1.428;2024-03-07T05:13:13;99360.06;;;16.81;40.90
82872;BME280;72646;43.596;1.428;2024-03-07T05:15:38;99337.03;;;16.70;41.25
82872;BME280;72646;43.596;1.428;2024-03-07T05:18:03;99346.78;;;16.78;41.13
82872;BME280;72646;43.596;1.428;2024-03-07T05:20:29;99333.19;;;16.71;41.04
82872;BME280;72646;43.596;1.428;2024-03-07T05:22:55;99333.19;;;16.71;40.88
82872;BME280;72646;43.596;1.428;2024-03-07T05:25:21;99342.88;;;16.74;40.93
82872;BME280;72646;43.596;1.428;2024-03-07T05:27:48;99338.44;;;16.73;40.76
82872;BME280;72646;43.596;1.428;2024-03-07T05:30:16;99346.47;;;16.74;41.02
82872;BME280;72646;43.596;1.428;2024-03-07T05:32:42;99346.13;;;16.71;41.08
82872;BME280;72646;43.596;1.428;2024-03-07T05:35:08;99352.47;;;16.71;41.05
82872;BME280;72646;43.596;1.428;2024-03-07T05:37:34;99335.34;;;16.69;41.37
82872;BME280;72646;43.596;1.428;2024-03-07T05:40:00;99348.06;;;16.70;40.94
82872;BME280;72646;43.596;1.428;2024-03-07T05:42:27;99345.56;;;16.69;40.95
82872;BME280;72646;43.596;1.428;2024-03-07T05:44:54;99346.88;;;16.66;40.85
82872;BME280;72646;43.596;1.428;2024-03-07T05:47:20;99340.03;;;16.69;40.91
82872;BME280;72646;43.596;1.428;2024-03-07T05:49:46;99350.81;;;16.70;40.61
82872;BME280;72646;43.596;1.428;2024-03-07T05:52:12;99338.88;;;16.65;41.03
82872;BME280;72646;43.596;1.428;2024-03-07T05:54:37;99350.81;;;16.70;41.13
82872;BME280;72646;43.596;1.428;2024-03-07T05:57:02;99349.97;;;16.70;41.07
82872;BME280;72646;43.596;1.428;2024-03-07T05:59:28;99345.31;;;16.70;40.97
82872;BME280;72646;43.596;1.428;2024-03-07T06:01:54;99345.81;;;16.67;40.90
82872;BME280;72646;43.596;1.428;2024-03-07T06:04:19;99343.38;;;16.71;41.02
82872;BME280;72646;43.596;1.428;2024-03-07T06:06:45;99351.06;;;16.69;40.57
82872;BME280;72646;43.596;1.428;2024-03-07T06:09:13;99357.16;;;16.71;40.39
82872;BME280;72646;43.596;1.428;2024-03-07T06:11:39;99334.13;;;16.60;40.67
82872;BME280;72646;43.596;1.428;2024-03-07T06:14:08;99346.31;;;16.64;40.42
82872;BME280;72646;43.596;1.428;2024-03-07T06:16:37;99345.56;;;16.69;40.24
82872;BME280;72646;43.596;1.428;2024-03-07T06:19:04;99350.22;;;16.68;40.22
82872;BME280;72646;43.596;1.428;2024-03-07T06:21:33;99350.22;;;16.68;39.97
82872;BME280;72646;43.596;1.428;2024-03-07T06:23:59;99343.31;;;16.66;39.96
82872;BME280;72646;43.596;1.428;2024-03-07T06:26:35;99360.41;;;16.68;39.79
82872;BME280;72646;43.596;1.428;2024-03-07T06:29:07;99339.69;;;16.65;40.08
82872;BME280;72646;43.596;1.428;2024-03-07T06:31:38;99343.38;;;16.71;40.15
82872;BME280;72646;43.596;1.428;2024-03-07T06:34:04;99348.38;;;16.74;40.21
82872;BME280;72646;43.596;1.428;2024-03-07T06:36:30;99342.81;;;16.69;39.58
82872;BME280;72646;43.596;1.428;2024-03-07T06:38:55;99356.41;;;16.75;39.29
82872;BME280;72646;43.596;1.428;2024-03-07T06:41:21;99360.00;;;16.76;39.67
82872;BME280;72646;43.596;1.428;2024-03-07T06:43:46;99359.75;;;16.77;39.52
82872;BME280;72646;43.596;1.428;2024-03-07T06:46:12;99345.06;;;16.72;39.15
82872;BME280;72646;43.596;1.428;2024-03-07T06:48:38;99348.06;;;16.70;39.18
82872;BME280;72646;43.596;1.428;2024-03-07T06:51:05;99340.28;;;16.67;39.31
82872;BME280;72646;43.596;1.428;2024-03-07T06:53:31;99357.16;;;16.71;39.30
82872;BME280;72646;43.596;1.428;2024-03-07T06:55:56;99342.69;;;16.64;39.06
82872;BME280;72646;43.596;1.428;2024-03-07T06:58:22;99350.22;;;16.68;39.08
82872;BME280;72646;43.596;1.428;2024-03-07T07:00:48;99345.31;;;16.70;39.05
82872;BME280;72646;43.596;1.428;2024-03-07T07:03:17;99336.69;;;16.67;39.20
82872;BME280;72646;43.596;1.428;2024-03-07T07:05:44;99342.56;;;16.70;39.17
82872;BME280;72646;43.596;1.428;2024-03-07T07:08:10;99332.84;;;16.68;39.10
82872;BME280;72646;43.596;1.428;2024-03-07T07:10:36;99345.31;;;16.70;39.25
82872;BME280;72646;43.596;1.428;2024-03-07T07:13:02;99351.97;;;16.74;38.83
82872;BME280;72646;43.596;1.428;2024-03-07T07:15:29;99356.66;;;16.74;38.75
82872;BME280;72646;43.596;1.428;2024-03-07T07:17:55;99345.88;;;16.72;39.27
82872;BME280;72646;43.596;1.428;2024-03-07T07:20:20;99360.50;;;16.73;38.82
82872;BME280;72646;43.596;1.428;2024-03-07T07:22:47;99358.84;;;16.72;38.85
82872;BME280;72646;43.596;1.428;2024-03-07T07:25:16;99374.09;;;16.79;39.13
82872;BME280;72646;43.596;1.428;2024-03-07T07:27:51;99377.09;;;16.78;38.80
82872;BME280;72646;43.596;1.428;2024-03-07T07:30:21;99368.59;;;16.79;39.00
82872;BME280;72646;43.596;1.428;2024-03-07T07:32:53;99376.63;;;16.81;39.14
82872;BME280;72646;43.596;1.428;2024-03-07T07:35:19;99369.44;;;16.80;38.84
82872;BME280;72646;43.596;1.428;2024-03-07T07:37:49;99369.44;;;16.80;38.77
82872;BME280;72646;43.596;1.428;2024-03-07T07:40:18;99360.91;;;16.81;38.73
82872;BME280;72646;43.596;1.428;2024-03-07T07:42:44;99347.13;;;16.81;38.55
82872;BME280;72646;43.596;1.428;2024-03-07T07:45:12;99347.72;;;16.83;38.39
82872;BME280;72646;43.596;1.428;2024-03-07T07:47:46;99343.78;;;16.79;38.01
82872;BME280;72646;43.596;1.428;2024-03-07T07:50:13;99346.88;;;16.83;38.27
82872;BME280;72646;43.596;1.428;2024-03-07T07:52:56;99342.72;;;16.80;38.46
82872;BME280;72646;43.596;1.428;2024-03-07T07:55:26;99346.28;;;16.81;38.46
82872;BME280;72646;43.596;1.428;2024-03-07T07:57:54;99333.00;;;16.78;37.71
82872;BME280;72646;43.596;1.428;2024-03-07T08:00:26;99341.63;;;16.81;37.64
82872;BME280;72646;43.596;1.428;2024-03-07T08:03:00;99330.84;;;16.80;37.76
82872;BME280;72646;43.596;1.428;2024-03-07T08:05:29;99335.00;;;16.82;38.10
82872;BME280;72646;43.596;1.428;2024-03-07T08:07:56;99340.28;;;16.84;37.69
82872;BME280;72646;43.596;1.428;2024-03-07T08:10:25;99336.72;;;16.83;37.78
82872;BME280;72646;43.596;1.428;2024-03-07T08:12:51;99308.13;;;16.73;38.21
82872;BME280;72646;43.596;1.428;2024-03-07T08:15:17;99331.75;;;16.85;38.19
82872;BME280;72646;43.596;1.428;2024-03-07T08:17:44;99322.63;;;16.85;37.94
82872;BME280;72646;43.596;1.428;2024-03-07T08:20:14;99332.84;;;16.84;37.84
82872;BME280;72646;43.596;1.428;2024-03-07T08:22:41;99295.19;;;16.73;38.24
82872;BME280;72646;43.596;1.428;2024-03-07T08:25:16;99309.63;;;16.80;37.67
82872;BME280;72646;43.596;1.428;2024-03-07T08:27:44;99308.28;;;16.83;37.71
82872;BME280;72646;43.596;1.428;2024-03-07T08:30:11;99297.25;;;16.83;37.68
82872;BME280;72646;43.596;1.428;2024-03-07T08:32:39;99304.44;;;16.84;37.83
82872;BME280;72646;43.596;1.428;2024-03-07T08:35:05;99292.06;;;16.86;37.76
82872;BME280;72646;43.596;1.428;2024-03-07T08:37:38;99302.28;;;16.86;37.85
82872;BME280;72646;43.596;1.428;2024-03-07T08:40:04;99295.91;;;16.85;37.61
82872;BME280;72646;43.596;1.428;2024-03-07T08:42:35;99273.47;;;16.77;37.69
82872;BME280;72646;43.596;1.428;2024-03-07T08:45:02;99291.50;;;16.84;37.68
82872;BME280;72646;43.596;1.428;2024-03-07T08:47:34;99285.16;;;16.84;37.58
82872;BME280;72646;43.596;1.428;2024-03-07T08:50:00;99276.38;;;16.87;37.38
82872;BME280;72646;43.596;1.428;2024-03-07T08:52:26;99265.09;;;16.88;37.88
82872;BME280;72646;43.596;1.428;2024-03-07T08:54:52;99267.00;;;16.88;37.71
82872;BME280;72646;43.596;1.428;2024-03-07T08:57:18;99257.91;;;16.87;37.51
82872;BME280;72646;43.596;1.428;2024-03-07T08:59:44;99250.81;;;16.91;37.47
82872;BME280;72646;43.596;1.428;2024-03-07T09:02:10;99252.47;;;16.92;37.96
82872;BME280;72646;43.596;1.428;2024-03-07T09:04:37;99248.63;;;16.93;37.33
82872;BME280;72646;43.596;1.428;2024-03-07T09:07:04;99243.69;;;16.95;37.56
82872;BME280;72646;43.596;1.428;2024-03-07T09:09:30;99237.59;;;16.93;37.67
82872;BME280;72646;43.596;1.428;2024-03-07T09:11:55;99255.31;;;16.97;37.64
82872;BME280;72646;43.596;1.428;2024-03-07T09:14:21;99256.91;;;16.93;37.45
82872;BME280;72646;43.596;1.428;2024-03-07T09:16:46;99260.22;;;16.95;38.07
82872;BME280;72646;43.596;1.428;2024-03-07T09:19:14;99243.03;;;16.88;37.85
82872;BME280;72646;43.596;1.428;2024-03-07T09:21:40;99254.72;;;16.95;37.46
82872;BME280;72646;43.596;1.428;2024-03-07T09:24:07;99248.94;;;16.97;37.71
82872;BME280;72646;43.596;1.428;2024-03-07T09:26:33;99247.34;;;17.01;38.20
82872;BME280;72646;43.596;1.428;2024-03-07T09:28:59;99236.25;;;16.96;38.11
82872;BME280;72646;43.596;1.428;2024-03-07T09:31:30;99217.84;;;17.01;38.21
82872;BME280;72646;43.596;1.428;2024-03-07T09:33:56;99229.53;;;17.08;38.16
82872;BME280;72646;43.596;1.428;2024-03-07T09:36:24;99227.03;;;17.07;37.84
82872;BME280;72646;43.596;1.428;2024-03-07T09:38:49;99244.91;;;17.04;37.99
82872;BME280;72646;43.596;1.428;2024-03-07T09:41:15;99226.13;;;17.01;38.21
82872;BME280;72646;43.596;1.428;2024-03-07T09:43:43;99230.53;;;17.02;38.00
82872;BME280;72646;43.596;1.428;2024-03-07T09:46:09;99217.91;;;17.06;38.34
82872;BME280;72646;43.596;1.428;2024-03-07T09:48:35;99233.94;;;17.09;38.13
82872;BME280;72646;43.596;1.428;2024-03-07T09:51:02;99229.03;;;17.11;38.12
82872;BME280;72646;43.596;1.428;2024-03-07T09:53:30;99227.63;;;17.09;37.87
82872;BME280;72646;43.596;1.428;2024-03-07T09:55:56;99205.84;;;17.12;37.84
82872;BME280;72646;43.596;1.428;2024-03-07T09:58:23;99218.50;;;17.08;38.28
82872;BME280;72646;43.596;1.428;2024-03-07T10:00:51;99216.75;;;17.02;38.44
82872;BME280;72646;43.596;1.428;2024-03-07T10:03:20;99215.47;;;17.10;37.93
82872;BME280;72646;43.596;1.428;2024-03-07T10:05:47;99219.84;;;17.06;38.10
82872;BME280;72646;43.596;1.428;2024-03-07T10:08:12;99209.72;;;17.11;37.95
82872;BME280;72646;43.596;1.428;2024-03-07T10:10:39;99209.13;;;17.09;38.29
82872;BME280;72646;43.596;1.428;2024-03-07T10:13:04;99218.00;;;17.11;38.35
82872;BME280;72646;43.596;1.428;2024-03-07T10:15:32;99233.69;;;17.11;38.09
82872;BME280;72646;43.596;1.428;2024-03-07T10:17:58;99221.84;;;17.10;38.01
82872;BME280;72646;43.596;1.428;2024-03-07T10:20:24;99226.00;;;17.13;37.86
82872;BME280;72646;43.596;1.428;2024-03-07T10:22:50;99220.50;;;17.13;37.86
82872;BME280;72646;43.596;1.428;2024-03-07T10:25:20;99219.66;;;17.12;38.10
82872;BME280;72646;43.596;1.428;2024-03-07T10:27:52;99221.59;;;17.12;37.93
82872;BME280;72646;43.596;1.428;2024-03-07T10:30:19;99217.66;;;17.08;37.97
82872;BME280;72646;43.596;1.428;2024-03-07T10:32:48;99221.84;;;17.10;37.89
82872;BME280;72646;43.596;1.428;2024-03-07T10:35:20;99224.34;;;17.12;38.28
82872;BME280;72646;43.596;1.428;2024-03-07T10:37:47;99217.47;;;17.14;38.35
82872;BME280;72646;43.596;1.428;2024-03-07T10:40:13;99218.53;;;17.13;37.98
82872;BME280;72646;43.596;1.428;2024-03-07T10:42:46;99194.25;;;17.10;37.96
82872;BME280;72646;43.596;1.428;2024-03-07T10:45:21;99203.06;;;17.07;38.11
82872;BME280;72646;43.596;1.428;2024-03-07T10:47:55;99200.59;;;17.11;38.02
82872;BME280;72646;43.596;1.428;2024-03-07T10:53:08;99189.91;;;17.14;37.86
82872;BME280;72646;43.596;1.428;2024-03-07T11:01:10;99195.66;;;17.13;38.36
82872;BME280;72646;43.596;1.428;2024-03-07T11:03:36;99197.59;;;17.12;38.35
82872;BME280;72646;43.596;1.428;2024-03-07T11:06:02;99184.38;;;17.14;38.40
82872;BME280;72646;43.596;1.428;2024-03-07T11:08:34;99187.94;;;17.15;38.18
82872;BME280;72646;43.596;1.428;2024-03-07T11:11:00;99177.19;;;17.13;38.18
82872;BME280;72646;43.596;1.428;2024-03-07T11:13:26;99144.63;;;17.10;38.42
82872;BME280;72646;43.596;1.428;2024-03-07T11:15:54;99175.78;;;17.11;38.21
82872;BME280;72646;43.596;1.428;2024-03-07T11:18:23;99168.34;;;17.11;38.15
82872;BME280;72646;43.596;1.428;2024-03-07T11:20:49;99167.84;;;17.14;38.35
82872;BME280;72646;43.596;1.428;2024-03-07T11:23:31;99159.47;;;17.09;38.22
82872;BME280;72646;43.596;1.428;2024-03-07T11:26:10;99165.59;;;17.11;38.23
82872;BME280;72646;43.596;1.428;2024-03-07T11:28:37;99166.16;;;17.13;38.27
82872;BME280;72646;43.596;1.428;2024-03-07T11:31:10;99160.13;;;17.16;38.38
82872;BME280;72646;43.596;1.428;2024-03-07T11:33:38;99150.13;;;17.10;38.40
82872;BME280;72646;43.596;1.428;2024-03-07T11:36:12;99144.09;;;17.13;38.45
82872;BME280;72646;43.596;1.428;2024-03-07T11:38:47;99137.41;;;17.09;38.63
82872;BME280;72646;43.596;1.428;2024-03-07T11:41:13;99130.50;;;17.07;38.25
82872;BME280;72646;43.596;1.428;2024-03-07T11:43:40;99147.38;;;17.10;38.69
82872;BME280;72646;43.596;1.428;2024-03-07T11:46:07;99128.06;;;17.10;38.28
82872;BME280;72646;43.596;1.428;2024-03-07T11:48:40;99135.75;;;17.08;38.67
82872;BME280;72646;43.596;1.428;2024-03-07T11:51:07;99107.34;;;17.08;38.69
82872;BME280;72646;43.596;1.428;2024-03-07T11:53:37;99112.59;;;17.09;38.33
82872;BME280;72646;43.596;1.428;2024-03-07T11:56:03;99080.56;;;17.03;38.58
82872;BME280;72646;43.596;1.428;2024-03-07T11:58:37;99093.88;;;17.11;38.69
82872;BME280;72646;43.596;1.428;2024-03-07T12:01:05;99071.31;;;17.14;38.26
82872;BME280;72646;43.596;1.428;2024-03-07T12:03:36;99067.69;;;17.14;38.56
82872;BME280;72646;43.596;1.428;2024-03-07T12:06:02;99080.66;;;17.13;38.54
82872;BME280;72646;43.596;1.428;2024-03-07T12:08:27;99062.44;;;17.12;38.50
82872;BME280;72646;43.596;1.428;2024-03-07T12:10:55;99062.44;;;17.12;38.75
82872;BME280;72646;43.596;1.428;2024-03-07T12:13:21;99034.00;;;17.07;38.40
82872;BME280;72646;43.596;1.428;2024-03-07T12:15:48;99048.56;;;17.02;38.36
82872;BME280;72646;43.596;1.428;2024-03-07T12:18:18;99049.94;;;17.05;38.64
82872;BME280;72646;43.596;1.428;2024-03-07T12:20:46;99060.19;;;17.09;38.58
82872;BME280;72646;43.596;1.428;2024-03-07T12:23:25;99053.28;;;17.07;38.58
82872;BME280;72646;43.596;1.428;2024-03-07T12:26:04;99050.28;;;17.08;39.01
82872;BME280;72646;43.596;1.428;2024-03-07T12:28:30;99040.34;;;17.07;38.85
82872;BME280;72646;43.596;1.428;2024-03-07T12:30:58;99053.28;;;17.07;38.94
82872;BME280;72646;43.596;1.428;2024-03-07T12:33:28;99046.94;;;17.06;38.62
82872;BME280;72646;43.596;1.428;2024-03-07T12:35:55;99041.47;;;17.11;38.93
82872;BME280;72646;43.596;1.428;2024-03-07T12:38:31;99036.72;;;17.02;38.79
82872;BME280;72646;43.596;1.428;2024-03-07T12:41:07;99036.75;;;17.07;38.54
82872;BME280;72646;43.596;1.428;2024-03-07T12:43:33;99029.56;;;17.06;38.92
82872;BME280;72646;43.596;1.428;2024-03-07T12:45:59;99024.59;;;17.08;38.68
82872;BME280;72646;43.596;1.428;2024-03-07T12:48:25;99017.75;;;17.10;38.44
82872;BME280;72646;43.596;1.428;2024-03-07T12:50:52;99033.22;;;17.11;38.43
82872;BME280;72646;43.596;1.428;2024-03-07T12:53:20;99019.09;;;17.08;39.02
82872;BME280;72646;43.596;1.428;2024-03-07T12:55:47;99040.09;;;17.09;38.76
82872;BME280;72646;43.596;1.428;2024-03-07T12:58:13;99024.88;;;17.06;39.00
82872;BME280;72646;43.596;1.428;2024-03-07T13:00:39;99022.13;;;17.06;39.05
82872;BME280;72646;43.596;1.428;2024-03-07T13:03:07;99032.88;;;17.08;38.90
82872;BME280;72646;43.596;1.428;2024-03-07T13:05:32;99008.03;;;17.03;39.04
82872;BME280;72646;43.596;1.428;2024-03-07T13:07:58;99002.88;;;17.11;39.08